createdAt,value
2019-02-23T00:01:22.589Z,14.03
2019-02-23T00:03:51.370Z,13.50
2019-02-23T00:06:29.275Z,14.23
2019-02-23T00:08:50.039Z,13.90
2019-02-23T00:11:18.513Z,13.60
2019-02-23T00:17:28.074Z,13.40
2019-02-23T00:19:56.539Z,14.17
2019-02-23T00:22:24.975Z,14.73
2019-02-23T00:24:53.802Z,15.00
2019-02-23T00:31:04.003Z,13.90
2019-02-23T00:33:32.790Z,14.47
2019-02-23T00:36:01.227Z,13.73
2019-02-23T00:38:29.915Z,14.13
2019-02-23T00:40:58.531Z,14.23
2019-02-23T00:43:26.970Z,14.87
2019-02-23T00:45:55.787Z,14.63
2019-02-23T00:48:24.221Z,14.07
2019-02-23T00:50:52.662Z,15.30
2019-02-23T00:53:21.128Z,14.13
2019-02-23T00:55:49.589Z,14.80
2019-02-23T00:58:18.024Z,13.90
2019-02-23T01:00:46.861Z,14.60
2019-02-23T01:03:15.290Z,13.83
2019-02-23T01:05:43.727Z,14.23
2019-02-23T01:08:12.280Z,15.20
2019-02-23T01:10:40.784Z,14.80
2019-02-23T01:13:09.304Z,15.20
2019-02-23T01:15:37.967Z,15.20
2019-02-23T01:18:06.407Z,14.03
2019-02-23T01:20:34.843Z,15.13
2019-02-23T01:23:03.316Z,14.83
2019-02-23T01:25:31.757Z,14.60
2019-02-23T01:28:00.187Z,15.60
2019-02-23T01:30:28.828Z,14.70
2019-02-23T01:32:57.257Z,15.07
2019-02-23T01:35:25.768Z,14.97
2019-02-23T01:37:54.577Z,15.73
2019-02-23T01:40:23.025Z,15.33
2019-02-23T01:42:51.628Z,16.03
2019-02-23T01:45:20.096Z,16.40
2019-02-23T01:47:48.543Z,15.47
2019-02-23T01:50:17.263Z,16.30
2019-02-23T01:52:46.102Z,15.83
2019-02-23T01:55:14.550Z,15.90
2019-02-23T01:57:42.981Z,15.97
2019-02-23T02:00:13.917Z,16.10
2019-02-23T02:02:42.791Z,16.50
2019-02-23T02:08:40.369Z,17.13
2019-02-23T02:11:09.358Z,16.93
2019-02-23T02:13:37.800Z,16.90
2019-02-23T02:16:06.350Z,16.60
2019-02-23T02:18:34.851Z,16.97
2019-02-23T02:24:44.590Z,17.13
2019-02-23T02:27:13.039Z,18.40
2019-02-23T02:33:09.476Z,18.27
2019-02-23T02:35:37.936Z,17.63
2019-02-23T02:38:06.386Z,18.03
2019-02-23T02:40:34.817Z,17.47
2019-02-23T02:43:03.611Z,18.23
2019-02-23T02:48:48.456Z,17.93
2019-02-23T02:51:16.890Z,18.53
2019-02-23T02:53:45.328Z,17.70
2019-02-23T02:56:13.972Z,17.77
2019-02-23T02:58:42.434Z,18.23
2019-02-23T03:04:39.343Z,18.37
2019-02-23T03:07:07.868Z,17.80
2019-02-23T03:09:36.308Z,17.77
2019-02-23T03:12:04.750Z,18.50
2019-02-23T03:14:33.202Z,18.30
2019-02-23T03:17:01.632Z,18.13
2019-02-23T03:22:58.172Z,17.63
2019-02-23T03:25:26.617Z,17.33
2019-02-23T03:27:55.068Z,17.40
2019-02-23T03:30:23.530Z,18.10
2019-02-23T03:32:52.041Z,17.13
2019-02-23T03:35:20.785Z,17.47
2019-02-23T03:37:49.215Z,18.00
2019-02-23T03:43:46.118Z,17.70
2019-02-23T03:46:14.837Z,17.07
2019-02-23T03:48:43.261Z,17.70
2019-02-23T03:51:11.699Z,17.70
2019-02-23T03:53:40.185Z,18.27
2019-02-23T03:56:08.687Z,16.60
2019-02-23T03:58:37.136Z,17.17
2019-02-23T04:01:06.068Z,16.80
2019-02-23T04:03:34.522Z,17.73
2019-02-23T04:06:02.951Z,16.80
2019-02-23T04:08:31.406Z,15.60
2019-02-23T04:10:59.843Z,16.50
2019-02-23T04:13:28.283Z,15.97
2019-02-23T04:15:57.039Z,16.67
2019-02-23T04:18:25.474Z,15.97
2019-02-23T04:21:01.911Z,16.50
2019-02-23T04:23:24.286Z,16.33
2019-02-23T04:25:53.048Z,16.23
2019-02-23T04:28:21.480Z,16.60
2019-02-23T04:30:50.252Z,16.47
2019-02-23T04:36:59.955Z,16.17
2019-02-23T04:39:28.392Z,15.27
2019-02-23T04:41:56.826Z,15.47
2019-02-23T04:44:25.386Z,15.70
2019-02-23T04:46:53.906Z,16.70
2019-02-23T04:49:25.613Z,16.63
2019-02-23T04:55:21.535Z,16.33
2019-02-23T04:57:49.975Z,16.03
2019-02-23T05:00:18.454Z,16.70
2019-02-23T05:06:27.799Z,15.70
2019-02-23T05:08:56.520Z,16.77
2019-02-23T05:11:24.963Z,16.07
2019-02-23T05:13:53.697Z,16.37
2019-02-23T05:16:22.142Z,16.10
2019-02-23T05:18:50.576Z,16.70
2019-02-23T05:21:26.362Z,15.67
2019-02-23T05:23:49.199Z,16.17
2019-02-23T05:26:17.647Z,16.70
2019-02-23T05:28:46.116Z,15.60
2019-02-23T05:34:55.693Z,16.43
2019-02-23T05:37:24.161Z,16.67
2019-02-23T05:39:52.943Z,16.90
2019-02-23T05:42:21.431Z,16.20
2019-02-23T05:44:49.905Z,17.30
2019-02-23T05:47:18.340Z,17.30
2019-02-23T05:49:46.799Z,16.57
2019-02-23T05:52:15.226Z,16.83
2019-02-23T05:54:43.690Z,17.17
2019-02-23T05:57:12.167Z,17.80
2019-02-23T05:59:40.608Z,17.13
2019-02-23T06:02:09.111Z,16.70
2019-02-23T06:04:37.651Z,16.63
2019-02-23T06:07:06.080Z,17.97
2019-02-23T06:09:34.506Z,16.83
2019-02-23T06:12:02.991Z,17.50
2019-02-23T06:14:31.433Z,16.47
2019-02-23T06:20:28.909Z,16.03
2019-02-23T06:22:57.772Z,16.77
2019-02-23T06:25:26.212Z,17.27
2019-02-23T06:27:54.649Z,17.13
2019-02-23T06:30:26.018Z,15.93
2019-02-23T06:32:54.527Z,15.43
2019-02-23T06:35:22.970Z,15.47
2019-02-23T06:37:53.325Z,16.83
2019-02-23T06:40:21.606Z,16.73
2019-02-23T06:42:50.051Z,16.00
2019-02-23T06:48:47.310Z,15.40
2019-02-23T06:51:15.781Z,15.47
2019-02-23T06:53:44.236Z,16.50
2019-02-23T06:59:42.331Z,15.60
2019-02-23T07:02:11.195Z,16.17
2019-02-23T07:08:21.110Z,15.77
2019-02-23T07:10:49.566Z,15.47
2019-02-23T07:13:18.025Z,16.17
2019-02-23T07:15:46.501Z,15.97
2019-02-23T07:18:14.942Z,15.93
2019-02-23T07:24:11.762Z,16.83
2019-02-23T07:26:40.195Z,16.50
2019-02-23T07:32:37.427Z,16.20
2019-02-23T07:35:07.274Z,15.83
2019-02-23T07:37:35.735Z,16.43
2019-02-23T07:40:11.690Z,16.87
2019-02-23T07:42:40.419Z,16.70
2019-02-23T07:48:37.490Z,16.10
2019-02-23T07:54:34.707Z,15.23
2019-02-23T08:00:33.060Z,16.37
2019-02-23T08:03:01.516Z,15.43
2019-02-23T08:05:29.965Z,15.67
2019-02-23T08:07:58.738Z,15.53
2019-02-23T08:10:27.195Z,15.37
2019-02-23T08:12:55.630Z,15.13
2019-02-23T08:15:24.076Z,15.30
2019-02-23T08:17:52.551Z,15.27
2019-02-23T08:20:20.990Z,15.67
2019-02-23T08:22:49.439Z,16.10
2019-02-23T08:28:46.633Z,16.10
2019-02-23T08:31:15.111Z,15.43
2019-02-23T08:33:43.546Z,14.77
2019-02-23T08:36:11.992Z,14.83
2019-02-23T08:38:40.438Z,15.13
2019-02-23T08:41:08.898Z,15.10
2019-02-23T08:43:37.395Z,14.50
2019-02-23T08:46:05.857Z,14.60
2019-02-23T08:48:34.289Z,14.93
2019-02-23T08:51:02.726Z,14.40
2019-02-23T08:57:00.276Z,14.73
2019-02-23T08:59:28.759Z,14.50
2019-02-23T09:01:57.479Z,14.67
2019-02-23T09:07:55.422Z,14.93
2019-02-23T09:13:52.302Z,14.50
2019-02-23T09:16:20.743Z,13.87
2019-02-23T09:22:17.395Z,13.80
2019-02-23T09:28:14.738Z,14.70
2019-02-23T09:30:43.220Z,14.83
2019-02-23T09:33:11.662Z,13.67
2019-02-23T09:35:40.179Z,13.83
2019-02-23T09:41:37.639Z,13.87
2019-02-23T09:44:06.077Z,13.50
2019-02-23T09:46:34.542Z,14.80
2019-02-23T09:49:03.333Z,13.83
2019-02-23T09:51:31.766Z,14.13
2019-02-23T09:54:00.587Z,14.77
2019-02-23T09:56:29.034Z,14.73
2019-02-23T09:58:57.477Z,14.73
2019-02-23T10:04:54.775Z,13.83
2019-02-23T10:10:51.944Z,13.37
2019-02-23T10:16:49.508Z,13.70
2019-02-23T10:19:17.991Z,13.17
2019-02-23T10:21:46.508Z,13.07
2019-02-23T10:24:16.899Z,14.37
2019-02-23T10:26:45.127Z,13.67
2019-02-23T10:29:13.951Z,14.13
2019-02-23T10:35:13.027Z,12.33
2019-02-23T10:37:41.530Z,11.87
2019-02-23T10:40:11.603Z,11.20
2019-02-23T10:42:40.343Z,10.63
2019-02-23T10:48:37.858Z,10.30
2019-02-23T10:54:34.481Z,11.00
2019-02-23T10:57:03.228Z,10.57
2019-02-23T11:03:13.055Z,10.17
2019-02-23T11:05:41.497Z,10.90
2019-02-23T11:08:09.937Z,10.83
2019-02-23T11:10:38.408Z,10.63
2019-02-23T11:16:47.894Z,10.10
2019-02-23T11:19:16.326Z,9.80
2019-02-23T11:21:44.930Z,9.13
2019-02-23T11:24:13.403Z,9.30
2019-02-23T11:30:23.324Z,9.23
2019-02-23T11:36:33.028Z,9.60
2019-02-23T11:39:01.744Z,10.07
2019-02-23T11:41:30.169Z,8.97
2019-02-23T11:43:58.654Z,8.90
2019-02-23T11:50:10.141Z,8.67
2019-02-23T11:52:39.488Z,9.20
2019-02-23T11:58:36.968Z,9.20
2019-02-23T12:04:22.707Z,8.47
2019-02-23T12:06:51.174Z,9.17
2019-02-23T12:09:19.896Z,8.80
2019-02-23T12:15:17.099Z,8.87
2019-02-23T12:17:45.983Z,8.83
2019-02-23T12:20:14.411Z,8.30
2019-02-23T12:22:43.103Z,8.40
2019-02-23T12:28:41.095Z,7.70
2019-02-23T12:31:09.622Z,8.27
2019-02-23T12:33:38.062Z,7.73
2019-02-23T12:39:36.118Z,7.53
2019-02-23T12:42:04.735Z,7.70
2019-02-23T12:48:14.840Z,7.43
2019-02-23T12:54:24.263Z,7.37
2019-02-23T13:00:33.764Z,7.83
2019-02-23T13:03:02.200Z,7.13
2019-02-23T13:08:54.450Z,7.63
2019-02-23T13:15:00.111Z,7.37
2019-02-23T13:21:09.681Z,7.63
2019-02-23T13:27:19.898Z,7.17
2019-02-23T13:30:15.955Z,7.23
2019-02-23T13:36:30.899Z,7.53
2019-02-23T13:42:57.192Z,6.47
2019-02-23T13:49:30.367Z,6.47
2019-02-23T13:55:57.192Z,6.33
2019-02-23T13:58:38.026Z,5.80
2019-02-23T14:01:18.425Z,6.10
2019-02-23T14:04:17.245Z,6.07
2019-02-23T14:06:55.867Z,5.47
2019-02-23T14:09:33.462Z,6.07
2019-02-23T14:15:38.992Z,5.43
2019-02-23T14:18:25.559Z,5.77
2019-02-23T14:21:16.526Z,5.37
2019-02-23T14:23:51.106Z,5.40
2019-02-23T14:30:29.471Z,5.13
2019-02-23T14:36:45.431Z,5.10
2019-02-23T14:43:16.737Z,5.13
2019-02-23T14:49:35.850Z,5.20
2019-02-23T14:55:48.632Z,5.10
2019-02-23T15:02:25.940Z,4.90
2019-02-23T15:04:57.447Z,4.90
2019-02-23T15:10:49.896Z,4.83
2019-02-23T15:17:24.071Z,4.50
2019-02-23T15:23:30.934Z,4.43
2019-02-23T15:29:39.599Z,4.17
2019-02-23T15:35:52.699Z,4.60
2019-02-23T15:42:05.326Z,4.27
2019-02-23T15:44:37.157Z,3.90
2019-02-23T15:47:17.882Z,4.00
2019-02-23T15:53:15.314Z,3.77
2019-02-23T15:55:44.067Z,3.43
2019-02-23T15:58:12.797Z,3.87
2019-02-23T16:00:41.720Z,4.30
2019-02-23T16:03:10.186Z,3.70
2019-02-23T16:05:39.364Z,3.90
2019-02-23T16:08:07.905Z,3.47
2019-02-23T16:10:36.619Z,3.60
2019-02-23T16:13:05.353Z,3.50
2019-02-23T16:19:03.029Z,3.57
2019-02-23T16:21:31.746Z,3.67
2019-02-23T16:24:00.180Z,3.70
2019-02-23T16:29:57.519Z,3.40
2019-02-23T16:32:26.142Z,3.37
2019-02-23T16:34:54.646Z,3.63
2019-02-23T16:40:51.698Z,3.67
2019-02-23T16:43:20.627Z,3.87
2019-02-23T16:49:17.829Z,3.13
2019-02-23T16:51:46.287Z,3.00
2019-02-23T16:54:15.071Z,3.30
2019-02-23T16:56:43.526Z,3.80
2019-02-23T16:59:12.044Z,3.70
2019-02-23T17:01:40.474Z,3.50
2019-02-23T17:04:08.931Z,3.47
2019-02-23T17:06:37.628Z,3.67
2019-02-23T17:09:06.598Z,3.50
2019-02-23T17:11:35.092Z,3.80
2019-02-23T17:14:03.898Z,3.50
2019-02-23T17:20:13.590Z,3.87
2019-02-23T17:22:42.022Z,3.83
2019-02-23T17:28:38.883Z,4.10
2019-02-23T17:31:07.359Z,3.40
2019-02-23T17:37:17.455Z,3.33
2019-02-23T17:43:27.416Z,3.70
2019-02-23T17:45:56.280Z,3.70
2019-02-23T17:51:53.341Z,3.87
2019-02-23T17:57:51.033Z,4.70
2019-02-23T18:00:21.377Z,4.33
2019-02-23T18:02:49.875Z,4.70
2019-02-23T18:05:18.551Z,4.40
2019-02-23T18:07:47.394Z,4.13
2019-02-23T18:13:57.233Z,4.30
2019-02-23T18:20:12.015Z,4.57
2019-02-23T18:26:21.788Z,5.10
2019-02-23T18:28:50.226Z,5.10
2019-02-23T18:31:18.660Z,4.80
2019-02-23T18:33:47.255Z,5.07
2019-02-23T18:36:15.768Z,5.33
2019-02-23T18:38:44.198Z,5.30
2019-02-23T18:44:41.979Z,5.33
2019-02-23T18:50:39.091Z,5.13
2019-02-23T18:56:36.035Z,5.47
2019-02-23T19:02:33.067Z,5.90
2019-02-23T19:08:29.574Z,6.20
2019-02-23T19:10:58.010Z,6.03
2019-02-23T19:16:55.424Z,5.90
2019-02-23T19:22:52.599Z,5.50
2019-02-23T19:25:21.873Z,5.87
2019-02-23T19:27:50.300Z,6.57
2019-02-23T19:33:48.087Z,6.60
2019-02-23T19:36:16.553Z,6.33
2019-02-23T19:38:45.063Z,6.40
2019-02-23T19:44:42.186Z,5.90
2019-02-23T19:47:11.076Z,6.00
2019-02-23T19:49:39.511Z,6.87
2019-02-23T19:55:37.132Z,6.63
2019-02-23T20:34:59.516Z,6.73
2019-02-23T20:40:56.199Z,6.87
2019-02-23T20:43:24.666Z,6.10
2019-02-23T20:45:53.119Z,6.70
2019-02-23T20:48:21.916Z,7.13
2019-02-23T20:50:50.525Z,6.60
2019-02-23T20:53:19.061Z,6.50
2019-02-23T20:59:16.388Z,6.40
2019-02-23T21:05:14.387Z,6.00
2019-02-23T21:11:12.119Z,6.20
2019-02-23T21:17:09.675Z,6.43
2019-02-23T21:19:38.528Z,6.10
2019-02-23T21:22:07.034Z,6.30
2019-02-23T21:28:04.239Z,6.07
2019-02-23T21:34:01.991Z,5.80
2019-02-23T21:36:30.470Z,6.13
2019-02-23T21:42:40.357Z,5.50
2019-02-23T21:45:09.886Z,6.17
2019-02-23T21:47:38.320Z,6.00
2019-02-23T21:50:09.147Z,5.83
2019-02-23T21:52:37.570Z,6.27
2019-02-23T21:55:06.552Z,6.10
2019-02-23T21:57:35.269Z,6.27
2019-02-23T22:03:44.835Z,6.07
2019-02-23T22:06:13.299Z,5.90
2019-02-23T22:12:11.292Z,5.93
2019-02-23T22:18:08.781Z,5.27
2019-02-23T22:24:06.180Z,5.90
2019-02-23T22:30:04.041Z,5.17
2019-02-23T22:32:32.509Z,5.57
2019-02-23T22:38:42.185Z,5.30
2019-02-23T22:41:11.041Z,5.50
2019-02-23T22:43:39.639Z,5.10
2019-02-23T22:46:08.098Z,5.07
2019-02-23T22:48:36.625Z,5.53
2019-02-23T22:54:33.878Z,5.13
2019-02-23T22:57:04.403Z,5.63
2019-02-23T23:03:14.117Z,5.40
2019-02-23T23:05:42.572Z,4.97
2019-02-23T23:08:11.282Z,5.00
2019-02-23T23:10:39.747Z,5.23
2019-02-23T23:13:08.322Z,4.93
2019-02-23T23:15:36.748Z,6.23
2019-02-23T23:18:05.630Z,6.47
2019-02-23T23:20:34.059Z,5.90
2019-02-23T23:23:02.492Z,5.17
2019-02-23T23:29:00.318Z,5.40
2019-02-23T23:31:28.782Z,5.63
2019-02-23T23:33:57.206Z,5.77
2019-02-23T23:36:25.950Z,4.87
2019-02-23T23:38:54.506Z,4.97
2019-02-23T23:41:22.994Z,4.70
2019-02-23T23:43:51.779Z,4.73
2019-02-23T23:46:20.235Z,4.70
2019-02-23T23:48:48.742Z,5.00
2019-02-23T23:51:17.166Z,5.20
2019-02-23T23:57:14.381Z,5.50
